Naha, Japan

8:05 AM JST on January 28, 2015 (GMT +0900)
Naha | Change Station
CLOSE
Current Station
Airport
Location: Naha City,
Elevation: 20 ft
Nearby Weather Stations

Elev 20 ft 26.20 °N, 127.65 °E | Updated 5 minutes ago

Light Rain
Light Rain
61 °F
Feels Like 61 °F
N
8
Wind Variable Wind from NE

Today
High -- | Low -- °F
--% Chance of Precip.
Yesterday
High -- | Low -- °F
Precip. -- in
7:15 AM 6:08 PM
First Quarter, 58% visible
Pressure 30.09 in
Visibility 5.6 miles
Clouds Few 1500 ft
Scattered Clouds 3500 ft
Overcast 8000 ft
Dew Point 55 °F
Humidity 82%
Rainfall 0.00 in
Snow Depth Not available.
UV 0 out of 12
Pollen Not available.
Air Quality Not available.
Flu Activity Not available.
METAR ROAH 272300Z 05007KT 020V090 9000 -RA FEW015 SCT035 OVC080 16/13 Q1019

More Conditions Fewer Conditions

Pressure 30.09 in
Visibility 5.6 miles
Clouds Few 1500 ft
Scattered Clouds 3500 ft
Overcast 8000 ft
Dew Point 55 °F
Humidity 82%
Rainfall 0.00 in
Snow Depth Not available.
UV 0 out of 12
Pollen Not available.
Air Quality Not available.
Flu Activity Not available.
METAR ROAH 272300Z 05007KT 020V090 9000 -RA FEW015 SCT035 OVC080 16/13 Q1019

More Conditions Fewer Conditions

10-Day Weather Forecast

Almanac

Astronomy

Jan. 28, 2015 Rise Set
Actual Time
Civil Twilight
Nautical Twilight
Astronomical Twilight
Moon
Length of Visible Light
Length of Day
Tomorrow will be .
, % of the Moon is Illuminated

Today's Extremes

Country Highs Country Lows

Community

WunderPhotos

Upload Photos

1,790,969 photos uploaded!

WunderBlogs® & News

Nearby

Air Quality

  Air Quality AQ Index Pollutant
Not available.

Snow Depth

Station Depth Elevation

Earthquake Activity

City Distance Mag. Time & Date
Minimum magnitude displayed is 2.5.

Coastal Water Temperatures

Place Temperature

Nearby Weather Stations